createdAt,value
2023-12-19T00:00:56.855Z,10.75
2023-12-19T00:03:33.005Z,10.48
2023-12-19T00:06:00.280Z,11.07
2023-12-19T00:08:27.616Z,11.20
2023-12-19T00:10:54.836Z,10.60
2023-12-19T00:13:22.396Z,10.88
2023-12-19T00:15:52.935Z,10.95
2023-12-19T00:18:27.956Z,10.85
2023-12-19T00:21:07.451Z,10.57
2023-12-19T00:23:43.254Z,10.63
2023-12-19T00:26:18.427Z,11.18
2023-12-19T00:28:46.252Z,11.57
2023-12-19T00:31:21.814Z,11.07
2023-12-19T00:33:49.377Z,10.32
2023-12-19T00:36:26.649Z,11.02
2023-12-19T00:38:53.958Z,11.13
2023-12-19T00:41:21.204Z,11.20
2023-12-19T00:43:51.677Z,11.07
2023-12-19T00:46:21.776Z,11.13
2023-12-19T00:48:51.994Z,11.55
2023-12-19T00:51:19.190Z,11.20
2023-12-19T00:53:46.438Z,11.80
2023-12-19T00:56:13.902Z,12.35
2023-12-19T00:58:43.103Z,12.32
2023-12-19T01:01:20.032Z,11.98
2023-12-19T01:03:50.096Z,11.70
2023-12-19T01:06:20.623Z,11.40
2023-12-19T01:08:48.059Z,11.00
2023-12-19T01:11:15.648Z,11.07
2023-12-19T01:13:45.874Z,11.05
2023-12-19T01:16:17.612Z,11.88
2023-12-19T01:18:44.864Z,11.07
2023-12-19T01:21:12.219Z,11.95
2023-12-19T01:23:40.039Z,11.32
2023-12-19T01:26:16.181Z,10.63
2023-12-19T01:28:47.413Z,12.43
2023-12-19T01:31:17.742Z,12.02
2023-12-19T01:33:45.222Z,12.73
2023-12-19T01:36:15.245Z,11.82
2023-12-19T01:38:42.431Z,12.18
2023-12-19T01:41:09.626Z,11.95
2023-12-19T01:43:36.744Z,13.10
2023-12-19T01:46:10.442Z,12.65
2023-12-19T01:48:37.659Z,12.48
2023-12-19T01:51:05.591Z,12.23
2023-12-19T01:53:33.390Z,12.80
2023-12-19T01:56:00.589Z,13.35
2023-12-19T01:58:30.076Z,13.10
2023-12-19T02:00:58.490Z,12.70
2023-12-19T02:03:25.582Z,12.68
2023-12-19T02:05:54.013Z,12.00
2023-12-19T02:08:24.046Z,12.70
2023-12-19T02:10:51.137Z,12.30
2023-12-19T02:13:18.092Z,12.15
2023-12-19T02:15:45.126Z,12.18
2023-12-19T02:18:22.541Z,11.77
2023-12-19T02:20:50.190Z,11.13
2023-12-19T02:23:17.804Z,11.90
2023-12-19T02:25:45.126Z,11.65
2023-12-19T02:28:17.450Z,11.60
2023-12-19T02:30:45.313Z,12.48
2023-12-19T02:33:12.862Z,12.20
2023-12-19T02:35:43.530Z,12.10
2023-12-19T02:38:12.929Z,12.40
2023-12-19T02:40:40.380Z,13.10
2023-12-19T02:43:07.348Z,12.73
2023-12-19T02:45:35.951Z,11.50
2023-12-19T02:48:03.422Z,11.98
2023-12-19T02:50:30.353Z,11.27
2023-12-19T02:52:57.875Z,11.02
2023-12-19T02:55:24.721Z,11.38
2023-12-19T02:57:52.472Z,12.00
2023-12-19T03:00:19.788Z,11.57
2023-12-19T03:02:50.112Z,11.95
2023-12-19T03:05:17.307Z,11.10
2023-12-19T03:07:47.049Z,10.68
2023-12-19T03:10:14.829Z,11.20
2023-12-19T03:12:42.115Z,10.88
2023-12-19T03:15:09.743Z,10.15
2023-12-19T03:17:37.052Z,10.82
2023-12-19T03:20:07.516Z,10.55
2023-12-19T03:22:34.680Z,11.27
2023-12-19T03:25:05.186Z,11.13
2023-12-19T03:27:32.379Z,11.13
2023-12-19T03:29:59.383Z,11.40
2023-12-19T03:32:30.326Z,10.55
2023-12-19T03:34:57.364Z,11.52
2023-12-19T03:37:27.759Z,10.82
2023-12-19T03:39:54.777Z,11.45
2023-12-19T03:42:21.788Z,11.55
2023-12-19T03:44:49.058Z,11.73
2023-12-19T03:47:16.091Z,11.45
2023-12-19T03:49:43.354Z,11.48
2023-12-19T03:52:10.800Z,11.63
2023-12-19T03:54:38.365Z,11.35
2023-12-19T03:57:05.559Z,11.48
2023-12-19T03:59:33.739Z,11.18
2023-12-19T04:02:01.229Z,11.52
2023-12-19T04:04:28.780Z,11.55
2023-12-19T04:06:56.083Z,11.13
2023-12-19T04:09:23.793Z,11.40
2023-12-19T04:11:51.103Z,11.38
2023-12-19T04:14:24.197Z,11.65
2023-12-19T04:16:53.622Z,12.70
2023-12-19T04:19:23.683Z,12.32
2023-12-19T04:21:51.845Z,12.57
2023-12-19T04:24:22.673Z,12.48
2023-12-19T04:26:49.770Z,13.10
2023-12-19T04:29:16.950Z,13.73
2023-12-19T04:31:44.248Z,13.55
2023-12-19T04:34:11.741Z,12.77
2023-12-19T04:36:39.045Z,12.40
2023-12-19T04:39:05.986Z,11.02
2023-12-19T04:41:33.177Z,11.93
2023-12-19T04:44:00.129Z,11.57
2023-12-19T04:46:27.077Z,11.95
2023-12-19T04:48:54.192Z,11.45
2023-12-19T04:51:21.778Z,12.27
2023-12-19T04:53:49.681Z,12.18
2023-12-19T04:56:18.340Z,11.90
2023-12-19T04:58:47.761Z,11.75
2023-12-19T05:01:15.814Z,12.20
2023-12-19T05:03:43.860Z,12.35
2023-12-19T05:06:19.257Z,11.68
2023-12-19T05:08:47.288Z,12.27
2023-12-19T05:11:14.336Z,12.20
2023-12-19T05:13:41.801Z,12.35
2023-12-19T05:16:17.810Z,12.63
2023-12-19T05:18:45.791Z,12.45
2023-12-19T05:21:14.051Z,12.30
2023-12-19T05:23:42.077Z,13.13
2023-12-19T05:26:10.399Z,12.32
2023-12-19T05:28:39.880Z,12.43
2023-12-19T05:31:07.799Z,12.45
2023-12-19T05:33:35.911Z,12.27
2023-12-19T05:36:03.825Z,12.95
2023-12-19T05:38:33.233Z,12.85
2023-12-19T05:41:00.453Z,12.90
2023-12-19T05:43:27.576Z,12.82
2023-12-19T05:45:54.741Z,12.98
2023-12-19T05:48:25.077Z,12.63
2023-12-19T05:50:53.541Z,13.15
2023-12-19T05:53:21.493Z,13.45
2023-12-19T05:55:49.845Z,13.10
2023-12-19T05:58:16.895Z,13.45
2023-12-19T06:00:47.597Z,12.77
2023-12-19T06:03:14.525Z,14.38
2023-12-19T06:05:41.984Z,14.75
2023-12-19T06:08:09.144Z,13.95
2023-12-19T06:10:36.864Z,15.07
2023-12-19T06:13:07.083Z,16.20
2023-12-19T06:15:34.232Z,15.18
2023-12-19T06:18:01.683Z,14.70
2023-12-19T06:20:29.420Z,14.15
2023-12-19T06:22:59.570Z,13.88
2023-12-19T06:25:26.508Z,13.95
2023-12-19T06:27:53.825Z,14.45
2023-12-19T06:30:27.649Z,13.98
2023-12-19T06:32:57.863Z,15.30
2023-12-19T06:35:25.539Z,15.30
2023-12-19T06:37:52.794Z,15.38
2023-12-19T06:40:19.997Z,16.23
2023-12-19T06:42:47.515Z,15.82
2023-12-19T06:45:17.574Z,17.42
2023-12-19T06:47:44.681Z,16.08
2023-12-19T06:50:11.864Z,16.83
2023-12-19T06:52:38.738Z,17.85
2023-12-19T06:55:07.663Z,17.80
2023-12-19T06:57:35.869Z,17.73
2023-12-19T07:00:03.137Z,18.50
2023-12-19T07:02:30.096Z,17.33
2023-12-19T07:04:57.263Z,16.45
2023-12-19T07:07:24.446Z,15.48
2023-12-19T07:09:51.463Z,14.48
2023-12-19T07:12:18.316Z,14.52
2023-12-19T07:14:45.541Z,14.43
2023-12-19T07:17:12.637Z,15.00
2023-12-19T07:19:46.100Z,14.43
2023-12-19T07:22:15.817Z,15.05
2023-12-19T07:24:42.959Z,14.93
2023-12-19T07:27:10.738Z,16.25
2023-12-19T07:29:41.129Z,16.08
2023-12-19T07:32:11.097Z,15.65
2023-12-19T07:34:38.724Z,14.93
2023-12-19T07:37:08.526Z,14.75
2023-12-19T07:39:35.645Z,14.50
2023-12-19T07:42:03.032Z,14.15
2023-12-19T07:44:31.869Z,13.55
2023-12-19T07:47:03.721Z,13.40
2023-12-19T07:49:31.209Z,13.48
2023-12-19T07:51:58.500Z,13.82
2023-12-19T07:54:25.771Z,13.13
2023-12-19T07:56:52.780Z,13.65
2023-12-19T07:59:19.660Z,13.10
2023-12-19T08:01:52.883Z,13.32
2023-12-19T08:04:20.232Z,13.67
2023-12-19T08:06:49.074Z,13.63
2023-12-19T08:09:19.410Z,14.05
2023-12-19T08:11:50.192Z,13.57
2023-12-19T08:14:17.515Z,13.85
2023-12-19T08:16:47.842Z,14.20
2023-12-19T08:19:18.167Z,13.43
2023-12-19T08:22:00.774Z,13.32
2023-12-19T08:24:29.031Z,13.98
2023-12-19T08:26:56.208Z,13.07
2023-12-19T08:29:29.617Z,13.23
2023-12-19T08:31:56.536Z,13.60
2023-12-19T08:34:23.614Z,12.95
2023-12-19T08:36:56.821Z,14.73
2023-12-19T08:39:23.952Z,15.63
2023-12-19T08:41:51.139Z,15.18
2023-12-19T08:44:18.212Z,15.75
2023-12-19T08:46:46.160Z,14.15
2023-12-19T08:49:13.310Z,13.63
2023-12-19T08:51:46.891Z,13.70
2023-12-19T08:54:14.287Z,14.25
2023-12-19T08:56:42.540Z,12.52
2023-12-19T08:59:12.378Z,12.52
2023-12-19T09:01:45.681Z,13.23
2023-12-19T09:04:43.409Z,12.65
2023-12-19T09:07:38.747Z,12.50
2023-12-19T09:10:18.085Z,12.52
2023-12-19T09:12:57.396Z,12.43
2023-12-19T09:16:10.105Z,12.70
2023-12-19T09:18:51.236Z,12.77
2023-12-19T09:21:58.388Z,13.02
2023-12-19T09:31:23.840Z,10.68
2023-12-19T09:34:06.121Z,11.25
2023-12-19T09:37:09.511Z,11.63
2023-12-19T09:43:09.010Z,11.50
2023-12-19T09:46:01.071Z,12.23
2023-12-19T09:48:43.097Z,12.52
2023-12-19T09:51:39.213Z,11.85
2023-12-19T09:54:18.383Z,10.93
2023-12-19T09:57:13.167Z,10.82
2023-12-19T10:03:17.133Z,10.38
2023-12-19T10:09:27.028Z,9.82
2023-12-19T10:19:18.832Z,8.98
2023-12-19T10:22:08.783Z,8.73
2023-12-19T10:28:20.737Z,8.90
2023-12-19T10:34:10.724Z,8.88
2023-12-19T10:36:49.699Z,8.65
2023-12-19T10:39:43.940Z,8.70
2023-12-19T10:42:22.270Z,8.20
2023-12-19T10:45:05.104Z,8.38
2023-12-19T10:48:04.833Z,9.10
2023-12-19T10:53:56.547Z,8.73
2023-12-19T10:57:03.439Z,7.90
2023-12-19T11:03:29.810Z,8.02
2023-12-19T11:07:01.760Z,7.53
2023-12-19T11:12:59.333Z,7.72
2023-12-19T11:19:09.334Z,9.27
2023-12-19T11:26:13.745Z,7.47
2023-12-19T11:28:54.020Z,7.57
2023-12-19T11:31:49.781Z,7.60
2023-12-19T11:37:27.954Z,8.32
2023-12-19T11:40:45.009Z,8.15
2023-12-19T11:43:23.412Z,7.57
2023-12-19T11:46:23.751Z,8.68
2023-12-19T11:48:58.265Z,7.97
2023-12-19T11:54:39.862Z,8.53
2023-12-19T11:57:08.128Z,7.78
2023-12-19T11:59:49.456Z,8.20
2023-12-19T12:02:36.541Z,8.15
2023-12-19T12:05:13.778Z,8.20
2023-12-19T12:07:44.348Z,9.15
2023-12-19T12:10:13.122Z,8.80
2023-12-19T12:12:40.409Z,8.63
2023-12-19T12:15:08.769Z,7.30
2023-12-19T12:17:36.845Z,8.57
2023-12-19T12:20:07.906Z,8.05
2023-12-19T12:22:37.882Z,7.70
2023-12-19T12:25:05.240Z,7.97
2023-12-19T12:27:32.560Z,7.70
2023-12-19T12:30:02.890Z,8.40
2023-12-19T12:32:32.926Z,8.20
2023-12-19T12:35:02.448Z,8.60
2023-12-19T12:37:29.351Z,8.68
2023-12-19T12:40:06.209Z,10.65
2023-12-19T12:42:34.283Z,10.40
2023-12-19T12:45:04.712Z,9.70
2023-12-19T12:47:32.115Z,10.55
2023-12-19T12:50:09.254Z,11.07
2023-12-19T12:52:36.401Z,11.35
2023-12-19T12:55:04.983Z,11.23
2023-12-19T12:57:32.696Z,10.38
2023-12-19T13:00:05.024Z,11.13
2023-12-19T13:02:37.358Z,10.93
2023-12-19T13:05:06.250Z,11.52
2023-12-19T13:07:33.081Z,12.07
2023-12-19T13:09:59.904Z,12.05
2023-12-19T13:12:26.850Z,11.63
2023-12-19T13:14:56.604Z,12.45
2023-12-19T13:17:23.981Z,12.18
2023-12-19T13:19:51.411Z,13.35
2023-12-19T13:22:18.466Z,13.30
2023-12-19T13:24:46.998Z,13.48
2023-12-19T13:27:18.470Z,13.90
2023-12-19T13:29:45.390Z,14.93
2023-12-19T13:32:12.915Z,13.88
2023-12-19T13:34:41.950Z,12.63
2023-12-19T13:37:09.214Z,11.60
2023-12-19T13:39:36.762Z,11.95
2023-12-19T13:42:06.674Z,12.07
2023-12-19T13:44:34.036Z,13.07
2023-12-19T13:47:03.985Z,13.40
2023-12-19T15:58:09.589Z,14.43
2023-12-19T16:00:40.301Z,12.60
2023-12-19T16:03:07.691Z,12.15
2023-12-19T16:05:39.076Z,11.55
2023-12-19T16:08:09.406Z,12.45
2023-12-19T16:10:38.168Z,12.75
2023-12-19T16:13:06.293Z,13.10
2023-12-19T16:15:33.230Z,12.68
2023-12-19T16:18:00.333Z,13.25
2023-12-19T16:20:27.528Z,13.10
2023-12-19T16:22:54.508Z,13.05
2023-12-19T16:25:21.462Z,12.23
2023-12-19T16:27:48.955Z,12.52
2023-12-19T16:30:16.168Z,12.75
2023-12-19T16:32:43.762Z,11.68
2023-12-19T16:35:10.895Z,12.35
2023-12-19T16:37:38.078Z,12.10
2023-12-19T16:40:17.290Z,11.90
2023-12-19T16:42:52.827Z,11.65
2023-12-19T16:45:20.044Z,11.95
2023-12-19T16:47:46.981Z,13.02
2023-12-19T16:50:14.076Z,12.95
2023-12-19T16:52:41.602Z,13.43
2023-12-19T16:55:09.249Z,12.98
2023-12-19T16:57:37.679Z,12.48
2023-12-19T17:00:07.186Z,12.85
2023-12-19T17:02:34.266Z,12.32
2023-12-19T17:05:01.126Z,12.90
2023-12-19T17:07:28.153Z,12.20
2023-12-19T17:09:54.992Z,12.35
2023-12-19T17:12:21.989Z,12.52
2023-12-19T17:14:50.962Z,12.80
2023-12-19T17:17:19.425Z,10.82
2023-12-19T17:19:47.500Z,11.80
2023-12-19T17:22:14.396Z,11.02
2023-12-19T17:24:41.527Z,11.13
2023-12-19T17:27:08.537Z,12.65
2023-12-19T17:29:35.527Z,11.80
2023-12-19T17:32:02.466Z,11.55
2023-12-19T17:34:35.953Z,10.73
2023-12-19T17:37:03.030Z,11.10
2023-12-19T17:39:32.778Z,10.20
2023-12-19T17:42:00.218Z,9.32
2023-12-19T17:44:27.244Z,9.65
2023-12-19T17:46:54.324Z,9.88
2023-12-19T17:49:21.356Z,9.45
2023-12-19T17:51:48.782Z,9.05
2023-12-19T17:54:15.761Z,9.20
2023-12-19T17:56:42.652Z,9.50
2023-12-19T17:59:11.364Z,9.20
2023-12-19T18:01:44.584Z,8.25
2023-12-19T18:04:12.411Z,8.43
2023-12-19T18:06:39.641Z,8.32
2023-12-19T18:09:06.909Z,8.18
2023-12-19T18:11:34.001Z,8.18
2023-12-19T18:14:01.359Z,8.45
2023-12-19T18:16:28.390Z,8.65
2023-12-19T18:18:55.969Z,9.43
2023-12-19T18:21:22.945Z,9.50
2023-12-19T18:23:50.227Z,9.50
2023-12-19T18:26:19.901Z,8.65
2023-12-19T18:28:47.350Z,8.65
2023-12-19T18:31:14.515Z,8.88
2023-12-19T18:33:42.527Z,8.68
2023-12-19T18:36:09.605Z,8.13
2023-12-19T18:38:36.510Z,7.45
2023-12-19T18:41:04.291Z,8.35
2023-12-19T18:43:31.372Z,7.53
2023-12-19T18:45:59.853Z,7.38
2023-12-19T18:48:26.983Z,8.10
2023-12-19T18:50:54.111Z,7.43
2023-12-19T18:53:21.529Z,7.47
2023-12-19T18:55:49.246Z,6.50
2023-12-19T18:58:16.335Z,6.63
2023-12-19T19:00:43.472Z,6.97
2023-12-19T19:03:10.596Z,6.90
2023-12-19T19:05:39.013Z,6.82
2023-12-19T19:08:08.654Z,7.10
2023-12-19T19:10:37.343Z,7.30
2023-12-19T19:13:04.535Z,6.30
2023-12-19T19:15:31.852Z,6.00
2023-12-19T19:17:59.045Z,5.90
2023-12-19T19:20:41.200Z,5.60
2023-12-19T19:23:14.361Z,6.05
2023-12-19T19:25:41.335Z,6.07
2023-12-19T19:28:14.945Z,6.13
2023-12-19T19:30:45.276Z,5.72
2023-12-19T19:33:15.025Z,6.38
2023-12-19T19:35:42.021Z,6.63
2023-12-19T19:38:09.390Z,6.05
2023-12-19T19:40:41.993Z,5.70
2023-12-19T19:43:11.828Z,5.97
2023-12-19T19:45:39.462Z,6.10
2023-12-19T19:48:06.966Z,5.57
2023-12-19T19:50:34.576Z,6.47
2023-12-19T19:53:03.023Z,6.22
2023-12-19T19:55:30.718Z,6.57
2023-12-19T19:58:00.673Z,6.45
2023-12-19T20:00:39.846Z,6.32
2023-12-19T20:03:07.544Z,5.28
2023-12-19T20:06:06.574Z,4.82
2023-12-19T20:08:34.985Z,5.10
2023-12-19T20:11:06.299Z,5.00
2023-12-19T20:13:34.141Z,5.22
2023-12-19T20:16:01.769Z,4.38
2023-12-19T20:18:29.247Z,4.30
2023-12-19T20:20:56.977Z,4.95
2023-12-19T20:23:29.696Z,4.65
2023-12-19T20:25:57.112Z,5.18
2023-12-19T20:28:25.350Z,5.63
2023-12-19T20:30:53.085Z,4.68
2023-12-19T20:33:20.616Z,5.50
2023-12-19T20:35:50.809Z,5.40
2023-12-19T20:38:18.217Z,5.15
2023-12-19T20:40:44.968Z,4.95
2023-12-19T20:43:12.050Z,4.53
2023-12-19T20:45:40.419Z,4.53
2023-12-19T20:48:16.544Z,4.28
2023-12-19T20:50:43.966Z,4.55
2023-12-19T20:53:13.980Z,4.47
2023-12-19T20:55:42.920Z,4.45
2023-12-19T20:58:12.618Z,4.20
2023-12-19T21:00:52.207Z,4.53
2023-12-19T21:03:25.563Z,4.30
2023-12-19T21:05:52.549Z,4.32
2023-12-19T21:08:19.592Z,4.00
2023-12-19T21:10:46.871Z,4.28
2023-12-19T21:13:13.836Z,4.38
2023-12-19T21:15:40.904Z,5.15
2023-12-19T21:18:08.110Z,4.32
2023-12-19T21:20:35.056Z,3.95
2023-12-19T21:23:02.155Z,4.25
2023-12-19T21:25:29.193Z,3.50
2023-12-19T21:27:56.172Z,3.58
2023-12-19T21:30:23.570Z,3.67
2023-12-19T21:32:51.306Z,3.40
2023-12-19T21:35:19.079Z,3.10
2023-12-19T21:37:46.106Z,3.25
2023-12-19T21:40:12.977Z,3.42
2023-12-19T21:42:40.042Z,3.55
2023-12-19T21:45:07.509Z,3.20
2023-12-19T21:47:34.488Z,3.60
2023-12-19T21:50:01.907Z,3.40
2023-12-19T21:52:30.743Z,3.78
2023-12-19T21:55:00.591Z,3.22
2023-12-19T21:57:28.795Z,3.38
2023-12-19T21:59:55.854Z,3.70
2023-12-19T22:02:22.702Z,3.30
2023-12-19T22:04:49.599Z,2.63
2023-12-19T22:07:17.217Z,2.50
2023-12-19T22:09:51.720Z,2.50
2023-12-19T22:12:24.377Z,2.60
2023-12-19T22:14:51.251Z,2.60
2023-12-19T22:17:19.260Z,2.67
2023-12-19T22:19:46.404Z,2.63
2023-12-19T22:22:13.820Z,2.53
2023-12-19T22:24:43.664Z,3.22
2023-12-19T22:27:14.166Z,3.55
2023-12-19T22:29:47.879Z,4.15
2023-12-19T22:32:15.138Z,3.77
2023-12-19T22:34:42.404Z,3.90
2023-12-19T22:37:11.427Z,3.85
2023-12-19T22:39:38.967Z,3.65
2023-12-19T22:42:06.102Z,3.78
2023-12-19T22:44:33.255Z,3.60
2023-12-19T22:47:02.930Z,3.47
2023-12-19T22:49:35.285Z,3.58
2023-12-19T22:52:02.375Z,3.53
2023-12-19T22:54:29.299Z,3.30
2023-12-19T22:56:57.082Z,3.30
2023-12-19T22:59:23.888Z,3.40
2023-12-19T23:01:54.268Z,3.17
2023-12-19T23:04:22.008Z,3.33
2023-12-19T23:06:50.093Z,2.80
2023-12-19T23:09:17.022Z,2.75
2023-12-19T23:11:43.980Z,2.90
2023-12-19T23:14:13.955Z,2.30
2023-12-19T23:16:42.451Z,2.47
2023-12-19T23:19:10.449Z,2.30
2023-12-19T23:21:37.741Z,1.88
2023-12-19T23:24:06.681Z,2.05
2023-12-19T23:26:33.790Z,2.00
2023-12-19T23:29:00.594Z,2.00
2023-12-19T23:31:34.206Z,1.92
2023-12-19T23:34:06.816Z,2.25
2023-12-19T23:36:36.949Z,1.75
2023-12-19T23:39:04.967Z,2.10
2023-12-19T23:41:31.838Z,2.03
2023-12-19T23:43:58.775Z,1.83
2023-12-19T23:46:25.633Z,1.80
2023-12-19T23:48:52.794Z,1.70
2023-12-19T23:51:19.668Z,1.73
2023-12-19T23:53:47.624Z,1.50
2023-12-19T23:56:17.661Z,1.55
2023-12-19T23:58:44.742Z,1.30
